Time;durP1;ratioP1;P1;durP2;ratioP2;P2;SDS_P1;SDS_P2;PMS_P1;PMS_P2;Temp;Humidity;BMP_temperature;BMP_pressure;BME280_temperature;BME280_humidity;BME280_pressure;Samples;Min_cycle;Max_cycle;Signal;HPM_P1;HPM_P2
2021/05/29 00:01:26;;;;;;;10.63;2.10;;;;;;;23.55;42.61;99887.41;4484779;32;33288;-61
2021/05/29 00:03:54;;;;;;;13.60;2.15;;;;;;;23.54;42.71;99892.03;4483321;32;33752;-61
2021/05/29 00:06:21;;;;;;;11.50;1.90;;;;;;;23.55;42.88;99881.97;4484699;32;33920;-61
2021/05/29 00:08:49;;;;;;;14.60;2.42;;;;;;;23.54;42.83;99878.41;4484667;32;34685;-61
2021/05/29 00:11:17;;;;;;;12.63;2.83;;;;;;;23.56;42.74;99875.50;4484050;32;33630;-61
2021/05/29 00:13:44;;;;;;;10.20;1.98;;;;;;;23.56;42.54;99870.03;4484823;32;34610;-61
2021/05/29 00:16:13;;;;;;;14.48;2.30;;;;;;;23.56;42.54;99864.59;4484873;32;34558;-61
2021/05/29 00:18:41;;;;;;;13.05;2.75;;;;;;;23.55;42.68;99871.94;4484415;32;33734;-61
2021/05/29 00:21:08;;;;;;;13.32;2.25;;;;;;;23.55;42.77;99861.03;4484710;32;34173;-61
2021/05/29 00:23:36;;;;;;;11.18;2.70;;;;;;;23.56;42.68;99859.16;4484538;32;33773;-61
2021/05/29 00:26:04;;;;;;;11.25;2.65;;;;;;;23.55;42.82;99861.03;4484408;32;34935;-61
2021/05/29 00:28:32;;;;;;;14.00;2.75;;;;;;;23.55;42.73;99843.84;4484579;32;33669;-61
2021/05/29 00:31:05;;;;;;;7.97;2.12;;;;;;;23.55;42.65;99852.88;4484541;32;33476;-61
2021/05/29 00:33:32;;;;;;;7.68;2.10;;;;;;;23.53;42.67;99852.25;4484299;32;33565;-61
2021/05/29 00:36:00;;;;;;;13.65;2.70;;;;;;;23.54;42.61;99843.00;4484436;32;33538;-61
2021/05/29 00:38:28;;;;;;;11.98;2.67;;;;;;;23.55;42.60;99843.84;4484472;32;34669;-61
2021/05/29 00:40:56;;;;;;;9.77;2.22;;;;;;;23.54;42.64;99848.47;4484639;32;34590;-61
2021/05/29 00:43:23;;;;;;;9.98;2.00;;;;;;;23.54;42.70;99842.19;4484154;32;33855;-61
2021/05/29 00:45:51;;;;;;;7.55;2.20;;;;;;;23.52;42.61;99842.41;4484646;32;33852;-61
2021/05/29 00:48:19;;;;;;;6.30;1.87;;;;;;;23.53;42.59;99844.06;4484379;32;33747;-61
2021/05/29 00:50:49;;;;;;;8.70;2.10;;;;;;;23.53;42.68;99840.53;4484371;32;33058;-61
2021/05/29 00:53:17;;;;;;;6.35;1.75;;;;;;;23.53;42.73;99840.53;4484153;32;33646;-61
2021/05/29 00:55:45;;;;;;;6.70;1.83;;;;;;;23.51;42.79;99846.22;4484435;32;33663;-61
2021/05/29 00:58:12;;;;;;;6.87;2.25;;;;;;;23.52;42.71;99830.69;4483243;32;34934;-62
2021/05/29 01:00:40;;;;;;;7.90;1.98;;;;;;;23.53;42.60;99837.81;4484157;32;33485;-62
2021/05/29 01:03:08;;;;;;;8.80;2.53;;;;;;;23.53;42.63;99845.97;4484338;32;33565;-61
2021/05/29 01:05:36;;;;;;;11.05;2.33;;;;;;;23.52;42.56;99844.31;4484313;32;33792;-62
2021/05/29 01:08:04;;;;;;;9.20;2.00;;;;;;;23.52;42.54;99839.69;4484149;32;34564;-62
2021/05/29 01:10:31;;;;;;;11.10;2.20;;;;;;;23.52;42.66;99845.16;4484350;32;33423;-62
2021/05/29 01:13:01;;;;;;;7.80;1.90;;;;;;;23.52;42.62;99834.25;4484134;32;33793;-62
2021/05/29 01:15:35;;;;;;;8.45;1.92;;;;;;;23.52;42.61;99833.41;4484208;32;33889;-62
2021/05/29 01:18:04;;;;;;;12.88;1.90;;;;;;;23.52;42.48;99831.53;4468793;32;33667;-62
2021/05/29 01:20:31;;;;;;;9.85;1.70;;;;;;;23.52;42.52;99825.25;4468531;32;34069;-62
2021/05/29 01:22:59;;;;;;;9.45;2.25;;;;;;;23.51;42.59;99827.13;4468444;32;33788;-61
2021/05/29 01:25:33;;;;;;;8.82;2.03;;;;;;;23.52;42.55;99822.53;4468570;32;33798;-62
2021/05/29 01:28:20;;;;;;;8.88;2.17;;;;;;;23.49;42.50;99821.06;4468384;32;33945;-62
2021/05/29 01:30:50;;;;;;;10.48;2.35;;;;;;;23.52;42.49;99826.06;4468438;32;33274;-62
2021/05/29 01:33:25;;;;;;;6.22;1.70;;;;;;;23.49;42.63;99826.53;4468487;32;33652;-62
2021/05/29 01:35:53;;;;;;;6.65;1.58;;;;;;;23.50;42.59;99825.47;4468473;32;34604;-62
2021/05/29 01:38:21;;;;;;;10.68;2.30;;;;;;;23.49;42.55;99826.53;4468537;32;33612;-61
2021/05/29 01:40:49;;;;;;;8.00;2.08;;;;;;;23.50;42.56;99832.78;4468577;32;34238;-61
2021/05/29 01:43:17;;;;;;;7.03;1.90;;;;;;;23.50;42.48;99830.94;4468707;32;33760;-62
2021/05/29 01:45:44;;;;;;;6.25;1.80;;;;;;;23.50;42.54;99830.94;4468368;32;33875;-62
2021/05/29 01:48:12;;;;;;;7.68;2.08;;;;;;;23.50;42.52;99832.78;4468104;32;34873;-62
2021/05/29 01:50:51;;;;;;;8.52;1.73;;;;;;;23.50;42.49;99833.66;4468158;32;33546;-62
2021/05/29 01:53:22;;;;;;;7.65;1.85;;;;;;;23.52;42.47;99833.41;4475573;32;33792;-62
2021/05/29 01:55:50;;;;;;;7.05;1.67;;;;;;;23.51;42.46;99827.13;4481788;32;33697;-62
2021/05/29 01:58:18;;;;;;;10.00;2.37;;;;;;;23.51;42.45;99829.03;4483984;32;33771;-62
2021/05/29 02:00:46;;;;;;;10.40;2.42;;;;;;;23.51;42.49;99826.31;4483772;32;33378;-62
2021/05/29 02:03:14;;;;;;;6.97;1.92;;;;;;;23.50;42.50;99828.22;4483873;32;34594;-62
2021/05/29 02:05:42;;;;;;;6.75;1.85;;;;;;;23.51;42.60;99815.41;4483861;32;34943;-62
2021/05/29 02:08:10;;;;;;;6.75;1.75;;;;;;;23.50;42.50;99813.72;4483949;32;33485;-62
2021/05/29 02:10:40;;;;;;;5.62;1.73;;;;;;;23.49;42.53;99818.34;4478790;32;160063;-62
2021/05/29 02:13:21;;;;;;;6.35;1.95;;;;;;;23.50;42.54;99813.72;4483501;32;33885;-62
2021/05/29 02:15:49;;;;;;;5.65;1.85;;;;;;;23.51;42.52;99818.97;4483896;32;33845;-62
2021/05/29 02:18:17;;;;;;;6.75;1.75;;;;;;;23.50;42.53;99813.72;4483709;32;33528;-62
2021/05/29 02:20:45;;;;;;;9.77;1.85;;;;;;;23.50;42.47;99813.72;4483480;32;34110;-62
2021/05/29 02:23:18;;;;;;;5.87;1.60;;;;;;;23.50;42.42;99819.19;4483663;32;33559;-62
2021/05/29 02:25:47;;;;;;;5.90;1.67;;;;;;;23.49;42.41;99806.62;4483550;32;34920;-62
2021/05/29 02:28:15;;;;;;;5.70;1.67;;;;;;;23.49;42.44;99806.62;4483539;32;33736;-62
2021/05/29 02:30:43;;;;;;;7.97;1.62;;;;;;;23.49;42.42;99802.00;4483486;32;33100;-62
2021/05/29 02:33:11;;;;;;;6.53;1.87;;;;;;;23.48;42.44;99805.81;4482272;32;33898;-62
2021/05/29 02:35:38;;;;;;;5.20;1.77;;;;;;;23.49;42.46;99804.72;4483260;32;33860;-62
2021/05/29 02:38:06;;;;;;;7.32;1.73;;;;;;;23.49;42.42;99806.62;4483389;32;35000;-62
2021/05/29 02:40:35;;;;;;;5.20;1.52;;;;;;;23.49;42.42;99801.19;4483434;32;34663;-62
2021/05/29 02:43:02;;;;;;;8.43;1.87;;;;;;;23.50;42.40;99800.12;4483275;32;33708;-62
2021/05/29 02:45:30;;;;;;;6.55;1.55;;;;;;;23.48;42.39;99800.34;4483324;32;33860;-62
2021/05/29 02:47:58;;;;;;;9.15;1.80;;;;;;;23.49;42.40;99799.28;4483235;32;34563;-62
2021/05/29 02:50:25;;;;;;;5.80;1.70;;;;;;;23.49;42.40;99801.19;4483249;32;34293;-62
2021/05/29 02:52:53;;;;;;;6.50;1.83;;;;;;;23.48;42.36;99794.91;4483131;32;33635;-62
2021/05/29 02:55:22;;;;;;;6.47;1.80;;;;;;;23.48;42.36;99797.63;4483192;32;33955;-62
2021/05/29 02:57:54;;;;;;;5.53;1.50;;;;;;;23.48;42.36;99789.47;4483176;32;33654;-62
2021/05/29 03:00:24;;;;;;;4.70;1.10;;;;;;;23.51;42.44;99799.09;4483145;32;33282;-62
2021/05/29 03:02:52;;;;;;;4.70;1.48;;;;;;;23.49;42.51;99793.84;4482870;32;34640;-62
2021/05/29 03:05:19;;;;;;;6.65;1.48;;;;;;;23.50;42.46;99787.34;4483017;32;35102;-62
2021/05/29 03:07:51;;;;;;;6.37;1.70;;;;;;;23.49;42.66;99793.84;4485227;32;34552;-62
2021/05/29 03:10:19;;;;;;;8.48;2.40;;;;;;;23.48;42.68;99800.34;4484971;32;33306;-62
2021/05/29 03:12:52;;;;;;;6.03;1.60;;;;;;;23.49;42.64;99798.47;4485072;32;33841;-62
2021/05/29 03:15:23;;;;;;;9.18;2.10;;;;;;;23.49;42.63;99799.28;4485275;32;33725;-62
2021/05/29 03:17:52;;;;;;;8.15;1.92;;;;;;;23.49;42.68;99803.91;4485051;32;34384;-62
2021/05/29 03:20:24;;;;;;;6.68;1.62;;;;;;;23.48;42.65;99803.06;4484185;32;34012;-62
2021/05/29 03:22:52;;;;;;;6.28;1.75;;;;;;;23.49;42.75;99799.28;4483817;32;33799;-61
2021/05/29 03:25:20;;;;;;;7.10;1.92;;;;;;;23.49;42.67;99802.00;4483893;32;33759;-61
2021/05/29 03:27:50;;;;;;;7.75;1.70;;;;;;;23.50;42.64;99802.84;4484979;32;34841;-61
2021/05/29 03:30:22;;;;;;;4.47;1.33;;;;;;;23.49;42.62;99802.00;4484918;32;34449;-61
2021/05/29 03:32:50;;;;;;;8.02;1.98;;;;;;;23.49;42.66;99814.78;4484867;32;33471;-61
2021/05/29 03:35:20;;;;;;;;;;;;;;;23.49;42.72;99817.53;4485158;32;33581;-61
2021/05/29 03:37:47;;;;;;;6.20;1.45;;;;;;;23.58;42.45;99814.25;4484892;32;33920;-61
2021/05/29 03:40:15;;;;;;;8.80;2.20;;;;;;;23.51;42.57;99802.63;4484840;32;33356;-61
2021/05/29 03:42:43;;;;;;;6.65;1.90;;;;;;;23.47;42.71;99809.59;4484764;32;33473;-61
2021/05/29 03:45:13;;;;;;;11.02;1.83;;;;;;;23.47;42.85;99814.22;4484831;32;33782;-61
2021/05/29 03:47:41;;;;;;;4.90;1.67;;;;;;;23.45;42.87;99817.13;4484828;32;33508;-61
2021/05/29 03:50:10;;;;;;;5.68;1.80;;;;;;;23.46;42.84;99813.38;4484439;32;33452;-62
2021/05/29 03:52:37;;;;;;;8.63;1.58;;;;;;;23.47;42.80;99811.47;4484567;31;33777;-62
2021/05/29 03:55:06;;;;;;;5.43;1.58;;;;;;;23.46;42.86;99815.28;4484683;32;33940;-62
2021/05/29 03:57:34;;;;;;;8.48;1.77;;;;;;;23.46;42.84;99816.09;4484704;32;33732;-62
2021/05/29 04:00:04;;;;;;;6.20;1.60;;;;;;;23.46;42.90;99818.00;4484783;32;33089;-61
2021/05/29 04:02:41;;;;;;;8.38;1.70;;;;;;;23.45;42.91;99827.19;4484806;32;34009;-62
2021/05/29 04:05:10;;;;;;;5.15;1.33;;;;;;;23.46;42.83;99818.81;4484629;32;33729;-62
2021/05/29 04:07:39;;;;;;;4.47;1.42;;;;;;;23.45;42.80;99828.03;4484640;32;35132;-62
2021/05/29 04:10:11;;;;;;;8.43;1.60;;;;;;;23.45;42.77;99825.31;4484634;32;33407;-62
2021/05/29 04:12:39;;;;;;;5.15;1.52;;;;;;;23.45;42.85;99825.31;4484486;32;34803;-62
2021/05/29 04:15:08;;;;;;;6.82;1.65;;;;;;;23.44;42.84;99826.37;4484585;32;34908;-62
2021/05/29 04:17:36;;;;;;;6.57;1.67;;;;;;;23.45;42.81;99838.91;4483841;32;34052;-62
2021/05/29 04:20:04;;;;;;;8.65;1.80;;;;;;;23.44;42.75;99842.72;4484921;32;33168;-62
2021/05/29 04:22:32;;;;;;;11.15;1.52;;;;;;;23.44;42.62;99834.53;4484837;32;34059;-61
2021/05/29 04:24:59;;;;;;;8.23;1.45;;;;;;;23.44;42.76;99834.53;4483258;32;33802;-63
2021/05/29 04:27:27;;;;;;;5.82;1.50;;;;;;;23.45;42.78;99836.19;4484571;32;33808;-62
2021/05/29 04:29:55;;;;;;;7.10;1.50;;;;;;;23.44;42.79;99837.25;4484606;32;34111;-62
2021/05/29 04:32:22;;;;;;;6.75;1.58;;;;;;;23.45;42.80;99836.19;4484451;32;33853;-63
2021/05/29 04:34:50;;;;;;;9.80;2.17;;;;;;;23.45;42.80;99841.66;4484457;32;34821;-62
2021/05/29 04:37:18;;;;;;;5.60;2.05;;;;;;;23.45;42.85;99838.91;4484536;32;33742;-62
2021/05/29 04:39:46;;;;;;;7.95;2.25;;;;;;;23.45;42.90;99840.81;4484366;32;33393;-62
2021/05/29 04:42:13;;;;;;;5.75;1.75;;;;;;;23.44;42.87;99834.53;4484404;32;34622;-62
2021/05/29 04:44:41;;;;;;;8.27;1.48;;;;;;;23.45;42.86;99843.53;4482074;32;34866;-62
2021/05/29 04:47:08;;;;;;;6.47;1.60;;;;;;;23.44;42.87;99848.16;4482835;32;33843;-61
2021/05/29 04:49:36;;;;;;;4.78;1.40;;;;;;;23.45;42.90;99843.53;4483764;32;33276;-61
2021/05/29 04:52:04;;;;;;;7.10;1.85;;;;;;;23.45;42.88;99843.53;4484136;32;33773;-61
2021/05/29 04:54:32;;;;;;;8.02;1.60;;;;;;;23.45;42.76;99847.09;4484311;32;33965;-61
2021/05/29 04:57:01;;;;;;;6.72;1.58;;;;;;;23.43;42.82;99839.16;4484469;32;33860;-61
2021/05/29 04:59:31;;;;;;;10.93;1.73;;;;;;;23.43;43.04;99841.87;4484592;32;33287;-62
2021/05/29 05:01:59;;;;;;;11.12;2.12;;;;;;;23.44;42.99;99834.53;4483856;32;34763;-61
2021/05/29 05:04:26;;;;;;;6.75;2.08;;;;;;;23.44;43.02;99837.25;4482999;32;33948;-61
2021/05/29 05:06:54;;;;;;;6.78;1.52;;;;;;;23.45;43.00;99838.09;4484176;32;34668;-61
2021/05/29 05:09:22;;;;;;;6.32;1.83;;;;;;;23.43;42.94;99852.78;4481696;32;34326;-61
2021/05/29 05:11:49;;;;;;;8.13;1.50;;;;;;;23.43;42.97;99847.31;4483595;32;33934;-62
2021/05/29 05:14:18;;;;;;;5.43;1.60;;;;;;;23.45;42.94;99838.09;4484206;32;33773;-61
2021/05/29 05:16:45;;;;;;;6.35;1.55;;;;;;;23.44;42.98;99837.25;4484018;32;33525;-61
2021/05/29 05:19:13;;;;;;;6.07;1.70;;;;;;;23.44;43.00;99834.53;4484161;32;34296;-61
2021/05/29 05:21:41;;;;;;;8.35;1.55;;;;;;;23.44;42.98;99839.97;4484083;32;34527;-61
2021/05/29 05:24:09;;;;;;;4.95;1.70;;;;;;;23.43;42.95;99835.59;4484252;32;33943;-61
2021/05/29 05:26:37;;;;;;;5.53;1.27;;;;;;;23.43;43.01;99841.87;4484536;32;34666;-61
2021/05/29 05:29:04;;;;;;;5.00;1.58;;;;;;;23.44;42.93;99837.25;4483320;32;34172;-61
2021/05/29 05:31:33;;;;;;;5.25;1.45;;;;;;;23.42;42.89;99839.38;4483160;32;34646;-63
2021/05/29 05:34:08;;;;;;;7.87;1.65;;;;;;;23.43;42.78;99832.87;4483150;32;33814;-60
2021/05/29 05:36:39;;;;;;;8.23;1.80;;;;;;;23.43;42.79;99839.16;4483309;32;34614;-61
2021/05/29 05:39:10;;;;;;;6.70;1.90;;;;;;;23.45;42.76;99838.91;4484078;32;32968;-61
2021/05/29 05:41:39;;;;;;;6.03;1.50;;;;;;;23.45;42.83;99851.72;4483371;32;33848;-61
2021/05/29 05:44:07;;;;;;;6.05;1.42;;;;;;;23.45;42.83;99841.66;4479098;32;33573;-60
2021/05/29 05:46:36;;;;;;;9.00;1.75;;;;;;;23.44;42.90;99834.53;4495879;31;33748;-60
2021/05/29 05:49:05;;;;;;;5.95;1.73;;;;;;;23.46;42.79;99843.34;4496663;31;34031;-60
2021/05/29 05:51:34;;;;;;;9.02;1.62;;;;;;;23.48;42.73;99841.19;4483990;32;34762;-61
2021/05/29 05:54:02;;;;;;;7.80;1.80;;;;;;;23.47;42.84;99833.28;4483733;32;33483;-60
2021/05/29 05:56:30;;;;;;;5.12;1.62;;;;;;;23.46;42.89;99837.06;4483856;32;34663;-61
2021/05/29 05:58:58;;;;;;;8.95;1.90;;;;;;;23.46;42.93;99834.34;4483526;32;33490;-61
2021/05/29 06:01:26;;;;;;;9.52;2.10;;;;;;;23.47;42.98;99850.44;4483728;32;33889;-61
2021/05/29 06:03:54;;;;;;;7.70;1.55;;;;;;;23.47;42.97;99841.44;4483505;32;33889;-61
2021/05/29 06:06:25;;;;;;;12.98;1.62;;;;;;;23.48;43.08;99843.09;4483737;32;33680;-61
2021/05/29 06:08:53;;;;;;;5.18;1.60;;;;;;;23.45;43.11;99838.91;4483805;32;33240;-61
2021/05/29 06:11:21;;;;;;;8.98;1.73;;;;;;;23.47;43.09;99844.16;4483258;32;33499;-61
2021/05/29 06:21:37;;;;;;;;;;;;;;;23.48;43.04;99857.53;4483730;32;34719;-61
2021/05/29 06:24:05;;;;;;;7.87;1.12;;;;;;;23.59;42.79;99856.78;4483288;32;34169;-61
2021/05/29 06:26:33;;;;;;;4.70;1.25;;;;;;;23.52;42.99;99863.37;4483485;32;33942;-62
2021/05/29 06:29:00;;;;;;;3.58;1.25;;;;;;;23.49;43.09;99861.91;4483587;32;33317;-66
2021/05/29 06:31:28;;;;;;;11.93;2.20;;;;;;;23.50;43.00;99858.16;4483490;32;33715;-63
2021/05/29 06:33:56;;;;;;;9.63;2.17;;;;;;;23.50;42.25;99869.06;4483486;32;33665;-63
2021/05/29 06:36:23;;;;;;;15.05;2.05;;;;;;;23.47;41.98;99865.94;4483490;32;33776;-63
2021/05/29 06:38:51;;;;;;;6.85;1.95;;;;;;;23.46;41.94;99872.47;4483572;32;33398;-63
2021/05/29 06:41:19;;;;;;;4.80;1.85;;;;;;;23.46;41.97;99858.84;4483352;32;34626;-61
2021/05/29 06:43:46;;;;;;;10.65;2.35;;;;;;;23.45;42.06;99863.44;4485015;32;34027;-62
2021/05/29 06:46:14;;;;;;;10.05;2.05;;;;;;;23.42;41.82;99862.00;4485335;32;33800;-61
2021/05/29 06:48:42;;;;;;;8.32;1.98;;;;;;;23.41;41.75;99862.25;4485349;32;33443;-61
2021/05/29 06:51:14;;;;;;;8.75;2.47;;;;;;;23.40;41.64;99869.53;4483858;32;33476;-62
2021/05/29 06:53:46;;;;;;;10.15;2.30;;;;;;;23.41;41.57;99870.41;4484120;32;34523;-63
2021/05/29 06:59:01;;;;;;;6.85;2.03;;;;;;;23.39;41.39;99867.88;4485676;32;34101;-64
2021/05/29 07:01:29;;;;;;;7.37;2.47;;;;;;;23.38;41.33;99871.69;4484460;32;34832;-62
2021/05/29 07:03:57;;;;;;;7.78;2.42;;;;;;;23.37;41.36;99861.03;4485023;32;33871;-64
2021/05/29 07:06:25;;;;;;;12.18;2.53;;;;;;;23.34;41.26;99864.19;4485178;32;33836;-63
2021/05/29 07:08:56;;;;;;;6.37;2.30;;;;;;;23.34;41.25;99866.91;4485257;32;33417;-64
2021/05/29 07:11:24;;;;;;;6.50;2.10;;;;;;;23.33;41.25;99859.78;4484640;32;33838;-63
2021/05/29 07:13:52;;;;;;;6.62;2.50;;;;;;;23.33;41.17;99857.91;4484760;32;33653;-64
2021/05/29 07:16:21;;;;;;;6.97;2.62;;;;;;;23.33;41.16;99851.63;4485048;32;34562;-64
2021/05/29 07:18:49;;;;;;;6.47;2.45;;;;;;;23.30;41.08;99847.44;4485290;32;33081;-63
2021/05/29 07:21:17;;;;;;;4.55;2.37;;;;;;;23.29;41.15;99858.56;4484773;32;33706;-63
2021/05/29 07:23:45;;;;;;;5.85;2.30;;;;;;;23.31;41.06;99870.06;4485136;32;33807;-64
2021/05/29 07:26:13;;;;;;;4.28;2.08;;;;;;;23.30;40.92;99873.84;4479234;32;33868;-63
2021/05/29 07:28:41;;;;;;;7.47;2.17;;;;;;;23.27;41.10;99858.81;4487964;31;33390;-61
2021/05/29 07:31:08;;;;;;;5.90;1.90;;;;;;;23.29;41.03;99866.75;4498147;31;33757;-63
2021/05/29 07:33:36;;;;;;;5.57;2.30;;;;;;;23.29;41.07;99866.75;4484507;32;33836;-61
2021/05/29 07:36:04;;;;;;;4.82;2.33;;;;;;;23.30;41.06;99865.69;4484953;32;33951;-62
2021/05/29 07:38:33;;;;;;;6.90;2.15;;;;;;;23.32;41.08;99866.31;4484010;32;34038;-62
2021/05/29 07:41:01;;;;;;;5.32;2.30;;;;;;;23.33;41.02;99863.34;4484962;32;33714;-62
2021/05/29 07:43:32;;;;;;;8.30;2.28;;;;;;;23.34;41.00;99872.34;4484063;32;33812;-63
2021/05/29 07:46:00;;;;;;;4.60;2.22;;;;;;;23.34;41.02;99864.19;4484599;32;35213;-62
2021/05/29 07:48:28;;;;;;;9.57;2.65;;;;;;;23.34;40.92;99869.63;4484711;32;33399;-61
2021/05/29 07:51:03;;;;;;;7.80;2.50;;;;;;;23.33;40.99;99859.78;4484558;32;34829;-62
2021/05/29 07:53:31;;;;;;;6.65;2.42;;;;;;;23.35;41.01;99858.50;4482874;32;33834;-64
2021/05/29 07:56:00;;;;;;;7.30;2.20;;;;;;;23.33;40.92;99852.47;4484524;32;33756;-62
2021/05/29 07:58:30;;;;;;;6.78;3.03;;;;;;;23.35;40.97;99858.50;4484503;32;33957;-61
2021/05/29 08:00:57;;;;;;;7.68;2.25;;;;;;;23.37;40.96;99844.69;4484747;32;33611;-61
2021/05/29 08:03:26;;;;;;;6.35;2.67;;;;;;;23.38;40.94;99843.63;4484114;32;33472;-62
2021/05/29 08:05:55;;;;;;;5.05;2.28;;;;;;;23.40;40.88;99842.31;4484430;32;34574;-63
2021/05/29 08:08:23;;;;;;;5.30;2.62;;;;;;;23.40;40.76;99845.03;4484586;32;32986;-62
2021/05/29 08:10:52;;;;;;;5.47;2.60;;;;;;;23.40;40.87;99845.03;4484436;32;34606;-63
2021/05/29 08:13:20;;;;;;;8.43;2.95;;;;;;;23.38;40.80;99841.72;4483858;32;34681;-63
2021/05/29 08:15:48;;;;;;;6.32;2.80;;;;;;;23.41;40.81;99846.72;4484435;32;33752;-63
2021/05/29 08:18:17;;;;;;;10.05;2.87;;;;;;;23.39;40.60;99850.72;4484462;32;33333;-62
2021/05/29 08:20:45;;;;;;;11.52;3.25;;;;;;;23.38;40.50;99851.78;4483484;32;33888;-62
2021/05/29 08:23:13;;;;;;;7.30;2.70;;;;;;;23.38;40.54;99847.16;4484233;32;34782;-63
2021/05/29 08:25:41;;;;;;;6.80;2.62;;;;;;;23.37;40.63;99842.78;4484224;32;34024;-62
2021/05/29 08:28:08;;;;;;;6.78;2.70;;;;;;;23.36;40.53;99843.84;4484487;32;34450;-62
2021/05/29 08:30:36;;;;;;;5.10;2.72;;;;;;;23.37;40.51;99850.13;4482669;32;33995;-62
2021/05/29 08:33:05;;;;;;;8.05;2.80;;;;;;;23.36;40.53;99851.16;4484031;32;34537;-61
2021/05/29 08:35:33;;;;;;;4.97;2.70;;;;;;;23.34;40.43;99851.41;4484110;32;34480;-63
2021/05/29 08:38:03;;;;;;;4.80;2.53;;;;;;;23.33;40.45;99849.75;4483764;32;34084;-62
2021/05/29 08:40:30;;;;;;;5.70;2.25;;;;;;;23.33;40.37;99852.47;4484336;32;33822;-61
2021/05/29 08:42:58;;;;;;;5.18;2.30;;;;;;;23.30;40.28;99852.91;4484141;32;33800;-63
2021/05/29 08:45:25;;;;;;;3.92;1.95;;;;;;;23.33;40.19;99848.91;4483756;32;33754;-62
2021/05/29 08:47:53;;;;;;;5.07;2.35;;;;;;;23.31;40.23;99854.56;4484288;32;33248;-63
2021/05/29 08:50:21;;;;;;;7.93;2.45;;;;;;;23.30;40.11;99852.06;4484025;32;33541;-63
2021/05/29 08:52:48;;;;;;;5.00;2.12;;;;;;;23.32;40.01;99855.41;4484226;32;33534;-62
2021/05/29 08:55:17;;;;;;;7.15;2.55;;;;;;;23.30;40.01;99855.63;4483836;32;34805;-63
2021/05/29 08:57:46;;;;;;;4.22;2.40;;;;;;;23.26;40.02;99846.22;4483868;32;33478;-62
2021/05/29 09:00:16;;;;;;;4.60;2.28;;;;;;;23.27;39.88;99847.91;4470046;32;33935;-63
2021/05/29 09:03:15;;;;;;;3.80;2.10;;;;;;;23.28;39.89;99838.69;4484002;32;33845;-63
2021/05/29 09:05:51;;;;;;;5.12;2.30;;;;;;;23.31;39.73;99832.78;4471278;31;34531;-62
2021/05/29 09:08:23;;;;;;;4.12;2.70;;;;;;;23.29;39.88;99831.34;4468409;32;33332;-63
2021/05/29 09:10:53;;;;;;;3.92;2.00;;;;;;;23.30;39.82;99841.19;4468488;32;33878;-62
2021/05/29 09:13:22;;;;;;;4.68;2.33;;;;;;;23.28;39.60;99837.88;4468057;32;33666;-62
2021/05/29 09:15:57;;;;;;;4.05;2.22;;;;;;;23.26;39.51;99835.34;4474145;32;34104;-63
2021/05/29 09:18:30;;;;;;;6.00;2.22;;;;;;;23.29;39.61;99834.91;4483455;32;34009;-62
2021/05/29 09:21:27;;;;;;;6.15;2.37;;;;;;;23.25;39.48;99838.31;4483486;32;34431;-62
2021/05/29 09:24:00;;;;;;;4.85;2.37;;;;;;;23.28;39.57;99835.13;4483978;32;34752;-63
2021/05/29 09:26:49;;;;;;;6.22;2.58;;;;;;;23.26;39.35;99829.91;4492733;31;34766;-63
2021/05/29 09:29:20;;;;;;;5.78;2.28;;;;;;;23.26;39.49;99834.50;4484723;31;34088;-62
2021/05/29 09:32:07;;;;;;;3.85;1.98;;;;;;;23.24;39.43;99842.91;4484024;32;34542;-63
2021/05/29 09:34:47;;;;;;;6.62;2.58;;;;;;;23.29;39.15;99837.62;4468240;32;33559;-63
2021/05/29 09:37:26;;;;;;;5.53;2.35;;;;;;;23.24;39.28;99842.91;4468567;32;33757;-63
2021/05/29 09:40:02;;;;;;;5.10;2.50;;;;;;;23.29;39.28;99840.34;4471991;32;34071;-63
2021/05/29 09:42:37;;;;;;;5.12;2.10;;;;;;;23.28;39.38;99835.13;4483509;32;34546;-63
2021/05/29 09:45:19;;;;;;;8.35;2.20;;;;;;;23.25;39.25;99844.56;4483693;32;34718;-62
2021/05/29 09:48:13;;;;;;;4.95;2.00;;;;;;;23.27;39.23;99842.47;4484082;32;33761;-63
2021/05/29 09:51:07;;;;;;;5.85;2.17;;;;;;;23.27;39.20;99834.31;4484161;32;33980;-64
2021/05/29 09:53:42;;;;;;;4.65;2.22;;;;;;;23.25;39.30;99841.84;4482663;32;34511;-63
2021/05/29 09:56:31;;;;;;;7.55;2.42;;;;;;;23.25;39.26;99835.56;4483915;32;33828;-63
2021/05/29 09:59:01;;;;;;;7.90;2.53;;;;;;;23.23;39.27;99833.09;4482171;32;34623;-63
2021/05/29 10:01:40;;;;;;;6.00;2.10;;;;;;;23.22;39.35;99836.00;4483342;32;33841;-63
2021/05/29 10:04:13;;;;;;;5.90;2.47;;;;;;;23.23;39.18;99835.81;4484004;32;33315;-62
2021/05/29 10:06:41;;;;;;;6.82;2.22;;;;;;;23.23;39.14;99835.81;4483902;32;33816;-63
2021/05/29 10:09:09;;;;;;;4.32;2.10;;;;;;;23.24;39.02;99836.62;4483286;32;35238;-63
2021/05/29 10:11:37;;;;;;;3.22;1.92;;;;;;;23.24;39.05;99837.47;4483690;32;33302;-63
2021/05/29 10:14:06;;;;;;;7.15;2.00;;;;;;;23.24;39.15;99833.91;4483674;32;33953;-63
2021/05/29 10:16:35;;;;;;;4.12;2.10;;;;;;;23.24;39.17;99820.31;4482886;32;34748;-61
2021/05/29 10:19:02;;;;;;;6.80;2.12;;;;;;;23.21;39.14;99832.47;4482062;32;33704;-62
2021/05/29 10:21:31;;;;;;;5.55;2.45;;;;;;;23.22;39.23;99827.84;4482029;32;34144;-64
2021/05/29 10:23:59;;;;;;;5.68;1.95;;;;;;;23.24;38.92;99833.91;4483472;32;34499;-62
2021/05/29 10:26:28;;;;;;;8.73;2.37;;;;;;;23.24;38.82;99828.47;4478733;32;33855;-62
2021/05/29 10:28:56;;;;;;;7.57;2.10;;;;;;;23.27;38.46;99828.00;4495756;31;33883;-62
2021/05/29 10:31:29;;;;;;;6.75;2.30;;;;;;;23.31;38.26;99823.78;4472900;32;33391;-62
2021/05/29 10:33:57;;;;;;;5.00;2.20;;;;;;;23.28;38.03;99829.69;4483264;32;34333;-62
2021/05/29 10:36:44;;;;;;;6.65;2.22;;;;;;;23.31;37.72;99819.16;4483151;32;33886;-62
2021/05/29 10:39:30;;;;;;;4.65;2.35;;;;;;;23.34;37.52;99829.62;4483088;32;33774;-62
2021/05/29 10:42:03;;;;;;;5.43;1.95;;;;;;;23.33;37.54;99838.03;4482812;32;34322;-62
2021/05/29 10:44:38;;;;;;;4.68;2.25;;;;;;;23.32;37.50;99830.91;4483086;32;33793;-63
2021/05/29 10:47:13;;;;;;;8.90;2.05;;;;;;;23.33;37.65;99835.28;4482767;32;34726;-63
2021/05/29 10:49:47;;;;;;;4.87;2.33;;;;;;;23.35;37.53;99827.72;4482633;32;33860;-63
2021/05/29 10:52:29;;;;;;;4.32;2.03;;;;;;;23.36;37.21;99827.50;4482860;32;33356;-64
2021/05/29 10:55:20;;;;;;;12.02;2.92;;;;;;;23.38;36.50;99819.94;4483201;32;34779;-63
2021/05/29 10:58:05;;;;;;;12.02;2.90;;;;;;;23.36;36.38;99821.22;4478483;32;34424;-62
2021/05/29 11:00:36;;;;;;;7.57;2.50;;;;;;;23.35;36.64;99814.94;4470070;32;35002;-62
2021/05/29 11:03:16;;;;;;;9.88;2.47;;;;;;;23.35;36.49;99819.56;4482800;32;33600;-62
2021/05/29 11:05:48;;;;;;;9.15;2.35;;;;;;;23.35;36.02;99823.09;4483239;32;33505;-62
2021/05/29 11:08:43;;;;;;;4.95;1.90;;;;;;;23.34;35.98;99821.44;4482674;32;34297;-62
2021/05/29 11:11:36;;;;;;;6.82;2.20;;;;;;;23.38;35.59;99816.38;4482616;32;34486;-62
2021/05/29 11:14:20;;;;;;;4.25;1.60;;;;;;;23.35;35.16;99816.81;4482418;32;33251;-62
2021/05/29 11:16:49;;;;;;;7.55;2.00;;;;;;;23.31;34.91;99812.88;4467208;32;33956;-62
2021/05/29 11:19:33;;;;;;;5.75;1.73;;;;;;;23.31;35.00;99813.72;4467006;32;33615;-63
2021/05/29 11:22:05;;;;;;;3.40;1.58;;;;;;;23.31;34.80;99810.16;4478256;32;33785;-61
2021/05/29 11:24:49;;;;;;;5.18;1.70;;;;;;;23.31;34.97;99804.72;4482574;32;34820;-63
2021/05/29 11:27:18;;;;;;;7.15;2.12;;;;;;;23.33;35.34;99813.50;4483034;32;33816;-59
2021/05/29 11:30:12;;;;;;;5.50;1.70;;;;;;;23.32;35.85;99817.31;4483822;32;33813;-62
2021/05/29 11:35:48;;;;;;;3.85;1.55;;;;;;;23.35;35.64;99809.50;4484760;32;33363;-61
2021/05/29 11:40:58;;;;;;;7.53;2.00;;;;;;;23.33;36.09;99806.19;4484044;32;33968;-61
2021/05/29 11:43:42;;;;;;;3.35;1.67;;;;;;;23.35;36.14;99808.66;4484150;32;34814;-61
2021/05/29 11:46:15;;;;;;;6.95;1.60;;;;;;;23.38;36.01;99808.22;4483874;32;33353;-62
2021/05/29 11:49:03;;;;;;;3.20;1.73;;;;;;;23.33;36.28;99800.72;4484880;32;34828;-60
2021/05/29 11:51:34;;;;;;;5.10;1.80;;;;;;;23.34;36.40;99793.38;4484332;32;33841;-58
2021/05/29 11:54:16;;;;;;;8.20;1.73;;;;;;;23.36;36.61;99785.81;4484541;32;34705;-60
2021/05/29 11:56:49;;;;;;;6.05;2.10;;;;;;;23.37;36.53;99782.06;4484573;32;33312;-62
2021/05/29 11:59:17;;;;;;;7.72;1.87;;;;;;;23.34;36.64;99774.34;4484733;32;33888;-61
2021/05/29 12:01:48;;;;;;;7.80;2.05;;;;;;;23.37;36.74;99784.78;4483907;32;33532;-62
2021/05/29 12:04:21;;;;;;;5.97;1.62;;;;;;;23.37;36.13;99784.78;4484716;32;33970;-62